sensor_id;sensor_type;location;lat;lon;timestamp;temperature;humidity
11664;DHT22;72375;59.302;18.204;2024-03-23T00:54:29;6.10;99.90
11664;DHT22;72375;59.302;18.204;2024-03-23T00:57:14;6.00;99.90
11664;DHT22;72375;59.302;18.204;2024-03-23T01:00:00;6.00;99.90
11664;DHT22;72375;59.302;18.204;2024-03-23T01:02:44;6.00;99.90
11664;DHT22;72375;59.302;18.204;2024-03-23T01:05:30;6.00;99.90
11664;DHT22;72375;59.302;18.204;2024-03-23T01:08:14;5.90;99.90
11664;DHT22;72375;59.302;18.204;2024-03-23T01:11:02;6.00;99.90
11664;DHT22;72375;59.302;18.204;2024-03-23T01:13:46;6.00;99.90
11664;DHT22;72375;59.302;18.204;2024-03-23T01:16:32;5.90;99.90
11664;DHT22;72375;59.302;18.204;2024-03-23T01:19:16;5.90;99.90
11664;DHT22;72375;59.302;18.204;2024-03-23T01:22:02;5.90;99.90
11664;DHT22;72375;59.302;18.204;2024-03-23T01:24:47;5.90;99.90
11664;DHT22;72375;59.302;18.204;2024-03-23T01:27:34;5.80;99.90
11664;DHT22;72375;59.302;18.204;2024-03-23T01:30:18;5.80;99.90
11664;DHT22;72375;59.302;18.204;2024-03-23T01:33:04;5.80;99.90
11664;DHT22;72375;59.302;18.204;2024-03-23T01:35:49;5.80;99.90
11664;DHT22;72375;59.302;18.204;2024-03-23T01:38:34;5.80;99.90
11664;DHT22;72375;59.302;18.204;2024-03-23T01:41:20;5.80;99.90
11664;DHT22;72375;59.302;18.204;2024-03-23T01:44:07;5.80;99.90
11664;DHT22;72375;59.302;18.204;2024-03-23T01:46:52;5.70;99.90
11664;DHT22;72375;59.302;18.204;2024-03-23T01:49:37;5.70;99.90
11664;DHT22;72375;59.302;18.204;2024-03-23T01:52:22;5.70;99.90
11664;DHT22;72375;59.302;18.204;2024-03-23T01:55:08;5.70;99.90
11664;DHT22;72375;59.302;18.204;2024-03-23T01:57:53;5.60;99.90
11664;DHT22;72375;59.302;18.204;2024-03-23T02:00:42;5.60;99.90
11664;DHT22;72375;59.302;18.204;2024-03-23T02:03:28;5.60;99.90
11664;DHT22;72375;59.302;18.204;2024-03-23T02:06:13;5.60;99.90
11664;DHT22;72375;59.302;18.204;2024-03-23T02:08:58;5.50;99.90
11664;DHT22;72375;59.302;18.204;2024-03-23T02:11:45;5.50;99.90
11664;DHT22;72375;59.302;18.204;2024-03-23T02:14:29;5.60;99.90
11664;DHT22;72375;59.302;18.204;2024-03-23T02:17:17;5.50;99.90
11664;DHT22;72375;59.302;18.204;2024-03-23T02:20:02;5.50;99.90
11664;DHT22;72375;59.302;18.204;2024-03-23T02:22:53;5.50;99.90
11664;DHT22;72375;59.302;18.204;2024-03-23T02:25:37;5.40;99.90
11664;DHT22;72375;59.302;18.204;2024-03-23T02:28:23;5.40;99.90
11664;DHT22;72375;59.302;18.204;2024-03-23T02:31:08;5.30;99.90
11664;DHT22;72375;59.302;18.204;2024-03-23T02:33:54;5.40;99.90
11664;DHT22;72375;59.302;18.204;2024-03-23T02:36:38;5.40;99.90
11664;DHT22;72375;59.302;18.204;2024-03-23T02:39:25;5.40;99.90
11664;DHT22;72375;59.302;18.204;2024-03-23T02:42:10;5.30;99.90
11664;DHT22;72375;59.302;18.204;2024-03-23T02:44:55;5.30;99.90
11664;DHT22;72375;59.302;18.204;2024-03-23T02:47:40;5.20;99.90
11664;DHT22;72375;59.302;18.204;2024-03-23T02:50:26;5.20;99.90
11664;DHT22;72375;59.302;18.204;2024-03-23T02:53:11;5.20;99.90
11664;DHT22;72375;59.302;18.204;2024-03-23T02:55:59;5.20;99.90
11664;DHT22;72375;59.302;18.204;2024-03-23T02:58:43;5.10;99.90
11664;DHT22;72375;59.302;18.204;2024-03-23T03:01:29;5.20;99.90
11664;DHT22;72375;59.302;18.204;2024-03-23T03:04:13;5.10;99.90
11664;DHT22;72375;59.302;18.204;2024-03-23T03:06:59;5.10;99.90
11664;DHT22;72375;59.302;18.204;2024-03-23T03:09:44;5.10;99.90
11664;DHT22;72375;59.302;18.204;2024-03-23T03:12:31;5.10;99.90
11664;DHT22;72375;59.302;18.204;2024-03-23T03:15:16;5.00;99.90
11664;DHT22;72375;59.302;18.204;2024-03-23T03:18:02;5.10;99.90
11664;DHT22;72375;59.302;18.204;2024-03-23T03:20:46;5.00;99.90
11664;DHT22;72375;59.302;18.204;2024-03-23T03:23:32;5.10;99.90
11664;DHT22;72375;59.302;18.204;2024-03-23T03:26:16;5.10;99.90
11664;DHT22;72375;59.302;18.204;2024-03-23T03:29:04;5.00;99.90
11664;DHT22;72375;59.302;18.204;2024-03-23T03:31:48;5.00;99.90
11664;DHT22;72375;59.302;18.204;2024-03-23T03:34:34;5.00;99.90
11664;DHT22;72375;59.302;18.204;2024-03-23T03:37:19;5.00;99.90
11664;DHT22;72375;59.302;18.204;2024-03-23T03:40:05;5.00;99.90
11664;DHT22;72375;59.302;18.204;2024-03-23T03:42:52;4.90;99.90
11664;DHT22;72375;59.302;18.204;2024-03-23T03:45:40;4.90;99.90
11664;DHT22;72375;59.302;18.204;2024-03-23T03:48:24;4.90;99.90
11664;DHT22;72375;59.302;18.204;2024-03-23T03:51:10;4.90;99.90
11664;DHT22;72375;59.302;18.204;2024-03-23T03:53:54;4.80;99.90
11664;DHT22;72375;59.302;18.204;2024-03-23T03:56:40;4.80;99.90
11664;DHT22;72375;59.302;18.204;2024-03-23T03:59:25;4.80;99.90
11664;DHT22;72375;59.302;18.204;2024-03-23T04:02:12;4.80;99.90
11664;DHT22;72375;59.302;18.204;2024-03-23T04:04:57;4.70;99.90
11664;DHT22;72375;59.302;18.204;2024-03-23T04:07:42;4.70;99.90
11664;DHT22;72375;59.302;18.204;2024-03-23T04:10:27;4.70;99.90
11664;DHT22;72375;59.302;18.204;2024-03-23T04:13:13;4.70;99.90
11664;DHT22;72375;59.302;18.204;2024-03-23T04:15:57;4.70;99.90
11664;DHT22;72375;59.302;18.204;2024-03-23T04:18:44;4.70;99.90
11664;DHT22;72375;59.302;18.204;2024-03-23T04:21:31;5.00;99.90
11664;DHT22;72375;59.302;18.204;2024-03-23T04:24:17;4.70;99.90
11664;DHT22;72375;59.302;18.204;2024-03-23T04:27:04;4.70;99.90
11664;DHT22;72375;59.302;18.204;2024-03-23T04:29:51;4.70;99.90
11664;DHT22;72375;59.302;18.204;2024-03-23T04:32:36;4.70;99.90
11664;DHT22;72375;59.302;18.204;2024-03-23T04:35:22;4.70;99.90
11664;DHT22;72375;59.302;18.204;2024-03-23T04:38:09;4.70;99.90
11664;DHT22;72375;59.302;18.204;2024-03-23T04:40:55;4.70;99.90
11664;DHT22;72375;59.302;18.204;2024-03-23T04:43:41;4.60;99.90
11664;DHT22;72375;59.302;18.204;2024-03-23T04:46:26;4.60;99.90
11664;DHT22;72375;59.302;18.204;2024-03-23T04:49:12;4.60;99.90
11664;DHT22;72375;59.302;18.204;2024-03-23T04:51:59;4.60;99.90
11664;DHT22;72375;59.302;18.204;2024-03-23T04:54:45;4.60;99.90
11664;DHT22;72375;59.302;18.204;2024-03-23T04:57:31;4.60;99.90
11664;DHT22;72375;59.302;18.204;2024-03-23T05:00:17;4.60;99.90
11664;DHT22;72375;59.302;18.204;2024-03-23T05:03:01;4.60;99.90
11664;DHT22;72375;59.302;18.204;2024-03-23T05:05:48;4.70;99.90
11664;DHT22;72375;59.302;18.204;2024-03-23T05:08:34;4.60;99.90
11664;DHT22;72375;59.302;18.204;2024-03-23T05:11:19;4.60;99.90
11664;DHT22;72375;59.302;18.204;2024-03-23T05:14:05;4.60;99.90
11664;DHT22;72375;59.302;18.204;2024-03-23T05:16:50;4.70;99.90
11664;DHT22;72375;59.302;18.204;2024-03-23T05:19:35;4.60;99.90
11664;DHT22;72375;59.302;18.204;2024-03-23T05:22:21;4.60;99.90
11664;DHT22;72375;59.302;18.204;2024-03-23T05:25:07;4.70;99.90
11664;DHT22;72375;59.302;18.204;2024-03-23T05:27:54;4.70;99.90
11664;DHT22;72375;59.302;18.204;2024-03-23T05:30:38;5.10;99.90
11664;DHT22;72375;59.302;18.204;2024-03-23T05:33:24;4.80;99.90
11664;DHT22;72375;59.302;18.204;2024-03-23T05:36:09;4.70;99.90
11664;DHT22;72375;59.302;18.204;2024-03-23T05:38:56;4.70;99.90
11664;DHT22;72375;59.302;18.204;2024-03-23T05:41:42;4.80;99.90
11664;DHT22;72375;59.302;18.204;2024-03-23T05:44:28;4.90;99.90
11664;DHT22;72375;59.302;18.204;2024-03-23T05:47:13;5.00;99.90
11664;DHT22;72375;59.302;18.204;2024-03-23T05:49:59;5.10;99.90
11664;DHT22;72375;59.302;18.204;2024-03-23T05:52:46;5.10;99.90
11664;DHT22;72375;59.302;18.204;2024-03-23T05:55:30;5.10;99.90
11664;DHT22;72375;59.302;18.204;2024-03-23T05:58:18;5.20;99.90
11664;DHT22;72375;59.302;18.204;2024-03-23T06:01:03;5.30;99.90
11664;DHT22;72375;59.302;18.204;2024-03-23T06:03:48;5.50;99.90
11664;DHT22;72375;59.302;18.204;2024-03-23T06:06:33;5.70;99.90
11664;DHT22;72375;59.302;18.204;2024-03-23T06:09:19;5.70;99.90
11664;DHT22;72375;59.302;18.204;2024-03-23T06:12:04;5.80;99.90
11664;DHT22;72375;59.302;18.204;2024-03-23T06:14:52;6.00;99.90
11664;DHT22;72375;59.302;18.204;2024-03-23T06:17:37;6.10;99.90
11664;DHT22;72375;59.302;18.204;2024-03-23T06:20:23;6.10;99.90
11664;DHT22;72375;59.302;18.204;2024-03-23T06:23:07;6.20;99.90
11664;DHT22;72375;59.302;18.204;2024-03-23T06:25:53;6.30;99.90
11664;DHT22;72375;59.302;18.204;2024-03-23T06:28:39;6.40;99.90
11664;DHT22;72375;59.302;18.204;2024-03-23T06:31:26;6.60;99.90
11664;DHT22;72375;59.302;18.204;2024-03-23T06:34:13;6.60;99.90
11664;DHT22;72375;59.302;18.204;2024-03-23T06:37:00;6.70;99.90
11664;DHT22;72375;59.302;18.204;2024-03-23T06:39:47;6.90;99.90
11664;DHT22;72375;59.302;18.204;2024-03-23T06:42:34;7.00;99.90
11664;DHT22;72375;59.302;18.204;2024-03-23T06:45:19;7.20;99.90
11664;DHT22;72375;59.302;18.204;2024-03-23T06:48:08;7.30;99.90
11664;DHT22;72375;59.302;18.204;2024-03-23T06:50:56;7.50;99.90
11664;DHT22;72375;59.302;18.204;2024-03-23T06:53:40;7.80;99.90
11664;DHT22;72375;59.302;18.204;2024-03-23T06:56:26;8.10;99.90
11664;DHT22;72375;59.302;18.204;2024-03-23T06:59:11;8.30;99.90
11664;DHT22;72375;59.302;18.204;2024-03-23T07:01:56;8.40;99.90
11664;DHT22;72375;59.302;18.204;2024-03-23T07:04:42;8.40;99.90
11664;DHT22;72375;59.302;18.204;2024-03-23T07:07:28;8.40;99.90
11664;DHT22;72375;59.302;18.204;2024-03-23T07:10:14;8.40;99.90
11664;DHT22;72375;59.302;18.204;2024-03-23T07:13:00;8.40;99.90
11664;DHT22;72375;59.302;18.204;2024-03-23T07:15:51;8.50;99.90
11664;DHT22;72375;59.302;18.204;2024-03-23T07:18:37;8.50;99.90
11664;DHT22;72375;59.302;18.204;2024-03-23T07:21:23;8.50;99.90
11664;DHT22;72375;59.302;18.204;2024-03-23T07:24:09;8.40;99.90
11664;DHT22;72375;59.302;18.204;2024-03-23T07:26:53;8.50;99.90
11664;DHT22;72375;59.302;18.204;2024-03-23T07:29:41;8.50;99.90
11664;DHT22;72375;59.302;18.204;2024-03-23T07:32:26;8.60;99.90
11664;DHT22;72375;59.302;18.204;2024-03-23T07:35:11;8.60;99.90
11664;DHT22;72375;59.302;18.204;2024-03-23T07:37:58;8.70;99.90
11664;DHT22;72375;59.302;18.204;2024-03-23T07:40:49;8.80;99.90
11664;DHT22;72375;59.302;18.204;2024-03-23T07:43:39;8.80;99.90
11664;DHT22;72375;59.302;18.204;2024-03-23T07:46:24;8.70;99.90
11664;DHT22;72375;59.302;18.204;2024-03-23T07:49:10;8.70;99.90
11664;DHT22;72375;59.302;18.204;2024-03-23T07:51:55;8.70;99.90
11664;DHT22;72375;59.302;18.204;2024-03-23T07:54:42;8.70;99.90
11664;DHT22;72375;59.302;18.204;2024-03-23T07:57:26;8.70;99.90
11664;DHT22;72375;59.302;18.204;2024-03-23T08:00:13;8.70;99.90
11664;DHT22;72375;59.302;18.204;2024-03-23T08:02:58;8.60;99.90
11664;DHT22;72375;59.302;18.204;2024-03-23T08:05:43;8.50;99.90
11664;DHT22;72375;59.302;18.204;2024-03-23T08:08:29;8.50;99.90
11664;DHT22;72375;59.302;18.204;2024-03-23T08:11:15;8.60;99.90
11664;DHT22;72375;59.302;18.204;2024-03-23T08:14:01;8.80;99.90
11664;DHT22;72375;59.302;18.204;2024-03-23T08:16:46;8.90;99.90
11664;DHT22;72375;59.302;18.204;2024-03-23T08:19:33;9.00;99.90
11664;DHT22;72375;59.302;18.204;2024-03-23T08:22:18;9.10;99.90
11664;DHT22;72375;59.302;18.204;2024-03-23T08:25:04;9.10;99.90
11664;DHT22;72375;59.302;18.204;2024-03-23T08:27:51;9.10;99.90
11664;DHT22;72375;59.302;18.204;2024-03-23T08:30:36;9.10;99.90
11664;DHT22;72375;59.302;18.204;2024-03-23T08:33:22;9.10;99.90
11664;DHT22;72375;59.302;18.204;2024-03-23T08:36:08;9.10;99.90
11664;DHT22;72375;59.302;18.204;2024-03-23T08:38:53;9.10;99.90
11664;DHT22;72375;59.302;18.204;2024-03-23T08:41:39;9.10;99.90
11664;DHT22;72375;59.302;18.204;2024-03-23T08:44:25;9.20;99.90
11664;DHT22;72375;59.302;18.204;2024-03-23T08:47:11;9.10;99.90
11664;DHT22;72375;59.302;18.204;2024-03-23T08:49:55;9.10;99.90
11664;DHT22;72375;59.302;18.204;2024-03-23T08:52:42;9.20;99.90
11664;DHT22;72375;59.302;18.204;2024-03-23T08:55:28;9.20;99.90
11664;DHT22;72375;59.302;18.204;2024-03-23T08:58:12;9.20;99.90
11664;DHT22;72375;59.302;18.204;2024-03-23T09:01:07;9.30;99.90
11664;DHT22;72375;59.302;18.204;2024-03-23T09:03:53;9.40;99.90
11664;DHT22;72375;59.302;18.204;2024-03-23T09:06:38;9.30;99.90
11664;DHT22;72375;59.302;18.204;2024-03-23T09:09:24;9.40;99.90
11664;DHT22;72375;59.302;18.204;2024-03-23T09:12:08;9.40;99.90
11664;DHT22;72375;59.302;18.204;2024-03-23T09:14:54;9.40;99.90
11664;DHT22;72375;59.302;18.204;2024-03-23T09:17:40;9.40;99.90
11664;DHT22;72375;59.302;18.204;2024-03-23T09:20:25;9.40;99.90
11664;DHT22;72375;59.302;18.204;2024-03-23T09:23:10;9.40;99.90
11664;DHT22;72375;59.302;18.204;2024-03-23T09:25:55;9.50;99.90
11664;DHT22;72375;59.302;18.204;2024-03-23T09:28:41;9.50;99.90
11664;DHT22;72375;59.302;18.204;2024-03-23T09:31:26;9.50;99.90
11664;DHT22;72375;59.302;18.204;2024-03-23T09:34:13;9.60;99.90
11664;DHT22;72375;59.302;18.204;2024-03-23T09:36:57;9.70;99.90
11664;DHT22;72375;59.302;18.204;2024-03-23T09:39:43;9.70;99.90
11664;DHT22;72375;59.302;18.204;2024-03-23T09:42:28;9.80;99.90
11664;DHT22;72375;59.302;18.204;2024-03-23T09:45:22;9.90;99.90
11664;DHT22;72375;59.302;18.204;2024-03-23T09:48:08;10.00;99.90
11664;DHT22;72375;59.302;18.204;2024-03-23T09:50:55;10.10;99.90
11664;DHT22;72375;59.302;18.204;2024-03-23T09:53:40;10.50;99.90
11664;DHT22;72375;59.302;18.204;2024-03-23T09:56:26;10.70;99.90
11664;DHT22;72375;59.302;18.204;2024-03-23T09:59:11;11.00;99.90
11664;DHT22;72375;59.302;18.204;2024-03-23T10:01:56;11.40;99.90
11664;DHT22;72375;59.302;18.204;2024-03-23T10:04:42;11.70;99.90
11664;DHT22;72375;59.302;18.204;2024-03-23T10:07:29;11.90;99.90
11664;DHT22;72375;59.302;18.204;2024-03-23T10:10:15;12.00;99.90
11664;DHT22;72375;59.302;18.204;2024-03-23T10:13:01;12.00;99.90
11664;DHT22;72375;59.302;18.204;2024-03-23T10:15:48;11.90;99.90
11664;DHT22;72375;59.302;18.204;2024-03-23T10:18:40;11.80;99.90
11664;DHT22;72375;59.302;18.204;2024-03-23T10:21:24;11.80;99.90
11664;DHT22;72375;59.302;18.204;2024-03-23T10:24:12;11.90;99.90
11664;DHT22;72375;59.302;18.204;2024-03-23T10:26:57;12.00;99.90
11664;DHT22;72375;59.302;18.204;2024-03-23T10:29:43;12.10;99.90
11664;DHT22;72375;59.302;18.204;2024-03-23T10:32:28;12.10;99.90
11664;DHT22;72375;59.302;18.204;2024-03-23T10:35:14;12.10;99.90
11664;DHT22;72375;59.302;18.204;2024-03-23T10:37:59;12.30;99.90
11664;DHT22;72375;59.302;18.204;2024-03-23T10:40:46;12.50;99.90
11664;DHT22;72375;59.302;18.204;2024-03-23T10:43:31;13.10;99.90
11664;DHT22;72375;59.302;18.204;2024-03-23T10:46:18;13.50;99.90
11664;DHT22;72375;59.302;18.204;2024-03-23T10:49:04;13.60;99.90
11664;DHT22;72375;59.302;18.204;2024-03-23T10:51:48;13.90;99.90
11664;DHT22;72375;59.302;18.204;2024-03-23T10:54:34;14.10;99.90
11664;DHT22;72375;59.302;18.204;2024-03-23T10:57:23;14.60;99.90
11664;DHT22;72375;59.302;18.204;2024-03-23T11:00:12;15.20;99.90
11664;DHT22;72375;59.302;18.204;2024-03-23T11:02:57;16.00;99.90
11664;DHT22;72375;59.302;18.204;2024-03-23T11:05:46;16.70;99.90
11664;DHT22;72375;59.302;18.204;2024-03-23T11:08:33;17.20;99.90
11664;DHT22;72375;59.302;18.204;2024-03-23T11:11:20;17.70;99.90
11664;DHT22;72375;59.302;18.204;2024-03-23T11:14:22;18.20;99.80
11664;DHT22;72375;59.302;18.204;2024-03-23T11:17:09;18.50;99.00
11664;DHT22;72375;59.302;18.204;2024-03-23T11:19:54;18.90;98.80
11664;DHT22;72375;59.302;18.204;2024-03-23T11:22:45;19.30;97.90
11664;DHT22;72375;59.302;18.204;2024-03-23T11:25:31;19.20;96.80
11664;DHT22;72375;59.302;18.204;2024-03-23T11:28:17;19.10;95.10
11664;DHT22;72375;59.302;18.204;2024-03-23T11:31:09;18.80;94.10
11664;DHT22;72375;59.302;18.204;2024-03-23T11:34:03;18.50;93.30
11664;DHT22;72375;59.302;18.204;2024-03-23T11:36:49;18.30;92.00
11664;DHT22;72375;59.302;18.204;2024-03-23T11:39:35;18.00;92.60
11664;DHT22;72375;59.302;18.204;2024-03-23T11:42:20;18.10;92.30
11664;DHT22;72375;59.302;18.204;2024-03-23T11:45:08;18.10;92.00
11664;DHT22;72375;59.302;18.204;2024-03-23T11:48:07;18.50;92.30
11664;DHT22;72375;59.302;18.204;2024-03-23T11:50:55;19.30;91.70
11664;DHT22;72375;59.302;18.204;2024-03-23T11:53:41;20.00;90.90
11664;DHT22;72375;59.302;18.204;2024-03-23T11:56:27;20.10;86.20
11664;DHT22;72375;59.302;18.204;2024-03-23T11:59:12;20.20;86.00
11664;DHT22;72375;59.302;18.204;2024-03-23T12:01:57;20.00;82.00
11664;DHT22;72375;59.302;18.204;2024-03-23T12:04:43;19.80;81.20
11664;DHT22;72375;59.302;18.204;2024-03-23T12:07:29;20.00;83.00
11664;DHT22;72375;59.302;18.204;2024-03-23T12:10:19;20.20;82.20
11664;DHT22;72375;59.302;18.204;2024-03-23T12:13:05;20.60;80.40
11664;DHT22;72375;59.302;18.204;2024-03-23T12:15:51;21.10;80.80
11664;DHT22;72375;59.302;18.204;2024-03-23T12:18:36;21.50;79.80
11664;DHT22;72375;59.302;18.204;2024-03-23T12:21:22;21.80;78.90
11664;DHT22;72375;59.302;18.204;2024-03-23T12:24:08;22.20;78.10
11664;DHT22;72375;59.302;18.204;2024-03-23T12:26:53;22.60;76.20
11664;DHT22;72375;59.302;18.204;2024-03-23T12:29:39;22.80;74.20
11664;DHT22;72375;59.302;18.204;2024-03-23T12:32:26;22.80;73.30
11664;DHT22;72375;59.302;18.204;2024-03-23T12:35:11;22.40;73.40
11664;DHT22;72375;59.302;18.204;2024-03-23T12:37:57;21.60;73.00
11664;DHT22;72375;59.302;18.204;2024-03-23T12:40:46;20.70;74.00
11664;DHT22;72375;59.302;18.204;2024-03-23T12:43:31;19.80;74.90
11664;DHT22;72375;59.302;18.204;2024-03-23T12:46:17;19.20;75.60
11664;DHT22;72375;59.302;18.204;2024-03-23T12:49:02;18.70;76.50
11664;DHT22;72375;59.302;18.204;2024-03-23T12:51:53;18.50;77.50
11664;DHT22;72375;59.302;18.204;2024-03-23T12:54:40;18.50;77.70
11664;DHT22;72375;59.302;18.204;2024-03-23T12:57:25;18.40;78.00
11664;DHT22;72375;59.302;18.204;2024-03-23T13:00:11;18.20;78.70
11664;DHT22;72375;59.302;18.204;2024-03-23T13:02:57;17.90;79.70
11664;DHT22;72375;59.302;18.204;2024-03-23T13:05:42;17.50;80.60
11664;DHT22;72375;59.302;18.204;2024-03-23T13:08:27;17.10;80.90
11664;DHT22;72375;59.302;18.204;2024-03-23T13:11:13;16.80;81.20
11664;DHT22;72375;59.302;18.204;2024-03-23T13:13:59;16.50;82.30
11664;DHT22;72375;59.302;18.204;2024-03-23T13:16:44;16.20;82.60
11664;DHT22;72375;59.302;18.204;2024-03-23T13:19:30;16.00;83.10
11664;DHT22;72375;59.302;18.204;2024-03-23T13:22:15;15.80;83.50
11664;DHT22;72375;59.302;18.204;2024-03-23T13:25:00;15.70;83.50
11664;DHT22;72375;59.302;18.204;2024-03-23T13:27:47;15.60;84.00
11664;DHT22;72375;59.302;18.204;2024-03-23T13:30:32;15.60;84.10
11664;DHT22;72375;59.302;18.204;2024-03-23T13:33:17;15.50;84.40
11664;DHT22;72375;59.302;18.204;2024-03-23T13:36:03;15.40;84.80
11664;DHT22;72375;59.302;18.204;2024-03-23T13:38:48;15.20;85.60
11664;DHT22;72375;59.302;18.204;2024-03-23T13:41:33;15.10;86.40
11664;DHT22;72375;59.302;18.204;2024-03-23T13:44:19;14.90;87.00
11664;DHT22;72375;59.302;18.204;2024-03-23T13:47:05;14.70;87.30
11664;DHT22;72375;59.302;18.204;2024-03-23T13:49:50;14.50;87.50
11664;DHT22;72375;59.302;18.204;2024-03-23T13:52:36;14.30;86.30
11664;DHT22;72375;59.302;18.204;2024-03-23T13:55:20;14.10;87.10
11664;DHT22;72375;59.302;18.204;2024-03-23T13:58:06;13.90;86.20
11664;DHT22;72375;59.302;18.204;2024-03-23T14:00:52;13.70;85.90
11664;DHT22;72375;59.302;18.204;2024-03-23T14:03:38;13.70;86.20
11664;DHT22;72375;59.302;18.204;2024-03-23T14:06:22;13.80;86.40
11664;DHT22;72375;59.302;18.204;2024-03-23T14:09:08;13.70;87.30
11664;DHT22;72375;59.302;18.204;2024-03-23T14:11:54;13.70;87.50
11664;DHT22;72375;59.302;18.204;2024-03-23T14:14:39;13.80;87.70
11664;DHT22;72375;59.302;18.204;2024-03-23T14:17:26;14.10;87.10
11664;DHT22;72375;59.302;18.204;2024-03-23T14:20:12;14.10;85.60
11664;DHT22;72375;59.302;18.204;2024-03-23T14:22:58;13.90;85.10
11664;DHT22;72375;59.302;18.204;2024-03-23T14:25:43;13.70;85.50
11664;DHT22;72375;59.302;18.204;2024-03-23T14:28:29;13.40;86.00
11664;DHT22;72375;59.302;18.204;2024-03-23T14:31:13;13.10;86.90
11664;DHT22;72375;59.302;18.204;2024-03-23T14:34:01;12.70;86.90
11664;DHT22;72375;59.302;18.204;2024-03-23T14:36:45;12.60;88.70
11664;DHT22;72375;59.302;18.204;2024-03-23T14:39:31;12.50;88.90
11664;DHT22;72375;59.302;18.204;2024-03-23T14:42:16;12.40;89.20
11664;DHT22;72375;59.302;18.204;2024-03-23T14:45:01;12.50;88.70
11664;DHT22;72375;59.302;18.204;2024-03-23T14:47:46;12.70;87.50
11664;DHT22;72375;59.302;18.204;2024-03-23T14:50:34;12.90;86.00
11664;DHT22;72375;59.302;18.204;2024-03-23T14:53:19;13.90;85.60
11664;DHT22;72375;59.302;18.204;2024-03-23T14:56:05;15.00;82.30
11664;DHT22;72375;59.302;18.204;2024-03-23T14:58:52;15.80;78.60
11664;DHT22;72375;59.302;18.204;2024-03-23T15:01:37;15.10;78.70
11664;DHT22;72375;59.302;18.204;2024-03-23T15:04:23;14.70;80.50
11664;DHT22;72375;59.302;18.204;2024-03-23T15:07:09;15.00;80.80
11664;DHT22;72375;59.302;18.204;2024-03-23T15:09:55;15.00;80.60
11664;DHT22;72375;59.302;18.204;2024-03-23T15:12:40;14.70;81.70
11664;DHT22;72375;59.302;18.204;2024-03-23T15:15:25;14.20;83.40
11664;DHT22;72375;59.302;18.204;2024-03-23T15:18:11;14.10;83.70
11664;DHT22;72375;59.302;18.204;2024-03-23T15:21:00;14.10;84.10
11664;DHT22;72375;59.302;18.204;2024-03-23T15:23:48;14.00;84.20
11664;DHT22;72375;59.302;18.204;2024-03-23T15:26:33;14.10;84.00
11664;DHT22;72375;59.302;18.204;2024-03-23T15:29:18;14.30;82.90
11664;DHT22;72375;59.302;18.204;2024-03-23T15:32:04;14.30;82.90
11664;DHT22;72375;59.302;18.204;2024-03-23T15:34:49;14.40;82.70
11664;DHT22;72375;59.302;18.204;2024-03-23T15:37:34;14.10;83.10
11664;DHT22;72375;59.302;18.204;2024-03-23T15:40:20;14.30;83.50
11664;DHT22;72375;59.302;18.204;2024-03-23T15:43:06;14.40;82.80
11664;DHT22;72375;59.302;18.204;2024-03-23T15:45:54;14.30;82.20
11664;DHT22;72375;59.302;18.204;2024-03-23T15:48:40;14.10;82.70
11664;DHT22;72375;59.302;18.204;2024-03-23T15:51:30;13.80;83.30
11664;DHT22;72375;59.302;18.204;2024-03-23T15:54:19;13.70;83.70
11664;DHT22;72375;59.302;18.204;2024-03-23T15:57:06;13.40;84.20
11664;DHT22;72375;59.302;18.204;2024-03-23T15:59:51;13.60;84.30
11664;DHT22;72375;59.302;18.204;2024-03-23T16:02:37;14.30;82.10
11664;DHT22;72375;59.302;18.204;2024-03-23T16:05:22;15.00;80.70
11664;DHT22;72375;59.302;18.204;2024-03-23T16:08:08;15.00;77.00
11664;DHT22;72375;59.302;18.204;2024-03-23T16:10:53;14.30;77.20
11664;DHT22;72375;59.302;18.204;2024-03-23T16:13:41;13.50;80.70
11664;DHT22;72375;59.302;18.204;2024-03-23T16:16:28;12.90;82.30
11664;DHT22;72375;59.302;18.204;2024-03-23T16:19:14;12.40;84.70
11664;DHT22;72375;59.302;18.204;2024-03-23T16:21:58;12.10;86.30
11664;DHT22;72375;59.302;18.204;2024-03-23T16:24:44;11.90;87.30
11664;DHT22;72375;59.302;18.204;2024-03-23T16:27:29;11.70;87.90
11664;DHT22;72375;59.302;18.204;2024-03-23T16:30:17;11.50;88.20
11664;DHT22;72375;59.302;18.204;2024-03-23T16:33:03;11.40;88.70
11664;DHT22;72375;59.302;18.204;2024-03-23T16:35:56;11.30;89.30
11664;DHT22;72375;59.302;18.204;2024-03-23T16:38:41;11.10;89.70
11664;DHT22;72375;59.302;18.204;2024-03-23T16:41:27;11.00;90.10
11664;DHT22;72375;59.302;18.204;2024-03-23T16:44:12;10.90;90.20
11664;DHT22;72375;59.302;18.204;2024-03-23T16:46:59;10.80;90.50
11664;DHT22;72375;59.302;18.204;2024-03-23T16:49:44;10.70;90.90
11664;DHT22;72375;59.302;18.204;2024-03-23T16:52:29;10.60;91.10
11664;DHT22;72375;59.302;18.204;2024-03-23T16:55:14;10.50;91.30
11664;DHT22;72375;59.302;18.204;2024-03-23T16:58:00;10.40;91.60
11664;DHT22;72375;59.302;18.204;2024-03-23T17:00:45;10.30;91.70
11664;DHT22;72375;59.302;18.204;2024-03-23T17:03:34;10.20;91.90
11664;DHT22;72375;59.302;18.204;2024-03-23T17:06:19;10.10;92.10
11664;DHT22;72375;59.302;18.204;2024-03-23T17:09:07;10.00;92.40
11664;DHT22;72375;59.302;18.204;2024-03-23T17:11:53;9.90;93.10
11664;DHT22;72375;59.302;18.204;2024-03-23T17:14:39;9.80;93.30
11664;DHT22;72375;59.302;18.204;2024-03-23T17:17:24;9.70;93.50
11664;DHT22;72375;59.302;18.204;2024-03-23T17:20:14;9.70;93.70
11664;DHT22;72375;59.302;18.204;2024-03-23T17:22:59;9.50;93.90
11664;DHT22;72375;59.302;18.204;2024-03-23T17:25:45;9.50;94.20
11664;DHT22;72375;59.302;18.204;2024-03-23T17:28:30;9.40;94.40
11664;DHT22;72375;59.302;18.204;2024-03-23T17:31:16;9.30;94.60
11664;DHT22;72375;59.302;18.204;2024-03-23T17:34:01;9.30;94.70
11664;DHT22;72375;59.302;18.204;2024-03-23T17:36:48;9.20;95.00
11664;DHT22;72375;59.302;18.204;2024-03-23T17:39:33;9.10;95.10
11664;DHT22;72375;59.302;18.204;2024-03-23T17:42:19;9.00;95.20
11664;DHT22;72375;59.302;18.204;2024-03-23T17:45:04;9.00;95.50
11664;DHT22;72375;59.302;18.204;2024-03-23T17:47:51;8.90;95.60
11664;DHT22;72375;59.302;18.204;2024-03-23T17:50:36;8.80;95.70
11664;DHT22;72375;59.302;18.204;2024-03-23T17:53:23;8.80;95.90
11664;DHT22;72375;59.302;18.204;2024-03-23T17:56:08;8.70;96.00
11664;DHT22;72375;59.302;18.204;2024-03-23T17:58:54;8.70;96.20
11664;DHT22;72375;59.302;18.204;2024-03-23T18:01:39;8.60;96.30
11664;DHT22;72375;59.302;18.204;2024-03-23T18:04:25;8.50;96.50
11664;DHT22;72375;59.302;18.204;2024-03-23T18:07:11;8.50;96.60
11664;DHT22;72375;59.302;18.204;2024-03-23T18:09:58;8.40;96.70
11664;DHT22;72375;59.302;18.204;2024-03-23T18:12:43;8.30;96.80
11664;DHT22;72375;59.302;18.204;2024-03-23T18:15:30;8.30;97.00